createdAt,value
2017-01-06T10:30:37.180Z,4.29
2017-01-06T10:31:36.441Z,4.1
2017-01-06T10:32:36.967Z,4.41
2017-01-06T10:33:36.630Z,4.21
2017-01-06T10:34:37.279Z,4.32
2017-01-06T10:35:35.847Z,4.44
2017-01-06T10:36:36.885Z,4.88
2017-01-06T10:37:36.508Z,5.24
2017-01-06T10:38:37.173Z,5.73
2017-01-06T10:39:36.477Z,5.68
2017-01-06T10:40:36.137Z,4.22
2017-01-06T10:41:36.823Z,4.1
2017-01-06T10:42:36.834Z,3.56
2017-01-06T10:43:36.778Z,3.61
2017-01-06T10:44:36.047Z,4.07
2017-01-06T10:45:36.215Z,4.55
2017-01-06T10:46:36.663Z,5.02
2017-01-06T10:47:36.241Z,5.28
2017-01-06T10:48:36.633Z,4.57
2017-01-06T10:49:36.823Z,4.29
2017-01-06T10:50:36.262Z,3.72
2017-01-06T10:51:35.485Z,3.5
2017-01-06T10:52:36.161Z,3.8
2017-01-06T10:53:36.535Z,4.1
2017-01-06T10:54:36.559Z,4.23
2017-01-06T10:55:35.920Z,4.43
2017-01-06T10:56:36.553Z,4.03
2017-01-06T10:57:35.692Z,4.79
2017-01-06T10:58:36.755Z,4.73
2017-01-06T10:59:36.734Z,5.09
2017-01-06T11:00:36.232Z,5.59
2017-01-06T11:01:36.366Z,5.77
2017-01-06T11:02:36.338Z,5.21
2017-01-06T11:03:36.006Z,5.47
2017-01-06T11:04:35.901Z,5.42
2017-01-06T11:05:35.940Z,5.44
2017-01-06T11:06:36.622Z,5.14
2017-01-06T11:07:35.903Z,4.96
2017-01-06T11:08:35.851Z,5.06
2017-01-06T11:09:36.568Z,5.09
2017-01-06T11:10:36.543Z,5.06
2017-01-06T11:11:36.345Z,5.03
2017-01-06T11:12:36.186Z,4.76
2017-01-06T11:13:36.430Z,3.9
2017-01-06T11:14:36.414Z,3.17
2017-01-06T11:15:35.410Z,3.7
2017-01-06T11:16:35.723Z,4.4
2017-01-06T11:17:35.689Z,4.94
2017-01-06T11:18:35.743Z,5.35
2017-01-06T11:19:36.328Z,5.21
2017-01-06T11:20:35.353Z,4.7
2017-01-06T11:21:36.283Z,4.37
2017-01-06T11:22:35.408Z,4.64
2017-01-06T11:23:36.114Z,4.8
2017-01-06T11:24:35.144Z,4.57
2017-01-06T11:25:36.189Z,4.41
2017-01-06T11:26:35.844Z,3.75
2017-01-06T11:27:35.512Z,3.53
2017-01-06T11:28:35.790Z,3.57
2017-01-06T11:29:35.182Z,3.95
2017-01-06T11:30:35.764Z,4.22
2017-01-06T11:31:35.424Z,4.07
2017-01-06T11:32:34.970Z,4.15
2017-01-06T11:33:35.369Z,3.8
2017-01-06T11:34:36.028Z,3.98
2017-01-06T11:35:35.642Z,3.95
2017-01-06T11:36:35.956Z,4.13
2017-01-06T11:37:35.273Z,3.8
2017-01-06T11:38:35.568Z,4.07
2017-01-06T11:39:35.551Z,4.08
2017-01-06T11:40:35.145Z,4.22
2017-01-06T11:41:34.877Z,4
2017-01-06T11:42:35.835Z,4.23
2017-01-06T11:43:34.745Z,4.03
2017-01-06T11:44:35.098Z,3.72
2017-01-06T11:45:35.483Z,3.68
2017-01-06T11:46:34.416Z,4.41
2017-01-06T11:47:35.412Z,5.28
2017-01-06T11:48:34.708Z,5.23
2017-01-06T11:49:35.681Z,4.92
2017-01-06T11:50:35.166Z,4.79
2017-01-06T11:51:34.978Z,4.1
2017-01-06T11:52:35.610Z,4.37
2017-01-06T11:53:35.253Z,4.44
2017-01-06T11:54:35.210Z,4.83
2017-01-06T11:55:35.537Z,5.2
2017-01-06T11:56:35.501Z,5.35
2017-01-06T11:57:34.846Z,5.17
2017-01-06T11:58:34.758Z,4.79
2017-01-06T11:59:34.785Z,4.44
2017-01-06T12:00:34.818Z,4.22
2017-01-06T12:01:34.726Z,4.65
2017-01-06T12:02:35.383Z,4.98
2017-01-06T12:03:34.395Z,5.21
2017-01-06T12:04:34.692Z,4.76
2017-01-06T12:05:34.671Z,4.37
2017-01-06T12:06:34.568Z,4.98
2017-01-06T12:07:34.589Z,5.28
2017-01-06T12:08:34.949Z,5.47
2017-01-06T12:09:34.498Z,5.65
2017-01-06T12:10:34.564Z,5.7
2017-01-06T12:11:35.196Z,5.7
2017-01-06T12:12:34.103Z,4.8
2017-01-06T12:13:35.132Z,4.67
2017-01-06T12:14:34.484Z,4.57
2017-01-06T12:15:34.455Z,4.47
2017-01-06T12:16:34.745Z,2.79
2017-01-06T12:17:34.399Z,2.41
2017-01-06T12:18:34.701Z,1.9
2017-01-06T12:19:34.931Z,2.23
2017-01-06T12:20:34.001Z,2.55
2017-01-06T12:21:34.170Z,2.53
2017-01-06T12:22:34.608Z,2.19
2017-01-06T12:23:33.928Z,1.75
2017-01-06T12:24:33.599Z,1.83
2017-01-06T12:25:34.772Z,1.17
2017-01-06T12:26:34.198Z,1.42
2017-01-06T12:27:33.351Z,1.68
2017-01-06T12:28:33.728Z,1.83
2017-01-06T12:29:34.136Z,1.85
2017-01-06T12:30:34.089Z,1.98
2017-01-06T12:31:34.804Z,1.78
2017-01-06T12:32:33.624Z,1.73
2017-01-06T12:33:33.930Z,1.53
2017-01-06T12:34:34.346Z,1.39
2017-01-06T12:35:33.899Z,1.19
2017-01-06T12:36:33.942Z,1.58
2017-01-06T12:37:34.252Z,1.6
2017-01-06T12:38:33.569Z,2.15
2017-01-06T12:39:33.901Z,2.19
2017-01-06T12:40:33.230Z,2.13
2017-01-06T12:41:33.415Z,2.05
2017-01-06T12:42:34.309Z,1.43
2017-01-06T12:43:33.028Z,1.29
2017-01-06T12:44:34.062Z,1.79
2017-01-06T12:45:34.059Z,1.68
2017-01-06T12:46:33.287Z,1.71
2017-01-06T12:47:33.595Z,2.1
2017-01-06T12:48:33.706Z,2.16
2017-01-06T12:49:34.002Z,2.33
2017-01-06T12:50:33.647Z,2.51
2017-01-06T12:51:33.613Z,2.46
2017-01-06T12:52:33.224Z,2.61
2017-01-06T12:53:33.513Z,2.31
2017-01-06T12:54:33.834Z,2.66
2017-01-06T12:55:34.034Z,2.25
2017-01-06T12:56:32.802Z,2.38
2017-01-06T12:57:33.736Z,2.48
2017-01-06T12:58:34.074Z,2.55
2017-01-06T12:59:33.691Z,2.19
2017-01-06T13:00:33.016Z,2.04
2017-01-06T13:01:33.327Z,1.78
2017-01-06T13:02:33.620Z,1.8
2017-01-06T13:03:33.927Z,1.58
2017-01-06T13:04:33.256Z,1.24
2017-01-06T13:05:33.276Z,1.08
2017-01-06T13:06:33.186Z,1.11
2017-01-06T13:07:33.978Z,1.5
2017-01-06T13:08:33.151Z,1.57
2017-01-06T13:09:33.002Z,1.31
2017-01-06T13:10:32.439Z,0.85
2017-01-06T13:11:33.121Z,0.42
2017-01-06T13:12:33.697Z,0.43
2017-01-06T13:13:33.094Z,0.46
2017-01-06T13:14:33.221Z,0.43
2017-01-06T13:15:33.012Z,0.42
2017-01-06T13:16:32.599Z,0.53
2017-01-06T13:17:32.591Z,0.62
2017-01-06T13:18:32.890Z,0.39
2017-01-06T13:19:32.898Z,0.7
2017-01-06T13:20:33.496Z,0.82
2017-01-06T13:21:33.170Z,0.67
2017-01-06T13:22:32.115Z,0.72
2017-01-06T13:23:32.756Z,0.78
2017-01-06T13:24:32.724Z,0.96
2017-01-06T13:25:32.757Z,0.68
2017-01-06T13:26:32.025Z,0.93
2017-01-06T13:27:32.616Z,1.5
2017-01-06T13:28:33.284Z,2.28
2017-01-06T13:29:32.923Z,2.51
2017-01-06T13:30:32.570Z,2.26
2017-01-06T13:31:32.613Z,1.82
2017-01-06T13:32:32.167Z,1.64
2017-01-06T13:33:32.483Z,1.82
2017-01-06T13:34:32.374Z,1.64
2017-01-06T13:35:32.750Z,1.8
2017-01-06T13:36:32.410Z,1.62
2017-01-06T13:37:32.419Z,1.55
2017-01-06T13:38:32.231Z,1.19
2017-01-06T13:39:32.387Z,1.4
2017-01-06T13:40:32.202Z,1
2017-01-06T13:41:32.583Z,1.25
2017-01-06T13:42:32.827Z,1.31
2017-01-06T13:43:32.547Z,1.18
2017-01-06T13:44:32.869Z,1.19
2017-01-06T13:45:32.111Z,1.26
2017-01-06T13:46:32.350Z,1.11
2017-01-06T13:47:32.046Z,0.9
2017-01-06T13:48:31.950Z,0.92
2017-01-06T13:49:32.004Z,1.26
2017-01-06T13:50:32.052Z,1.58
2017-01-06T13:51:31.884Z,1.68
2017-01-06T13:52:32.326Z,1.73
2017-01-06T13:53:31.251Z,1.17
2017-01-06T13:54:31.617Z,1.65
2017-01-06T13:55:32.553Z,1.49
2017-01-06T13:56:32.597Z,1.03
2017-01-06T13:57:31.190Z,1.18
2017-01-06T13:58:31.823Z,0.92
2017-01-06T13:59:31.830Z,0.86
2017-01-06T14:00:32.307Z,0.86
2017-01-06T14:01:31.049Z,0.86
2017-01-06T14:02:31.911Z,1.15
2017-01-06T14:03:31.095Z,0.92
2017-01-06T14:04:32.191Z,1.21
2017-01-06T14:05:30.932Z,1.29
2017-01-06T14:06:31.220Z,1.35
2017-01-06T14:07:31.501Z,1.15
2017-01-06T14:08:31.234Z,1.5
2017-01-06T14:09:31.589Z,1.9
2017-01-06T14:10:31.767Z,2.33
2017-01-06T14:11:30.992Z,2.07
2017-01-06T14:12:31.787Z,2.19
2017-01-06T14:13:31.438Z,2.05
2017-01-06T14:14:31.356Z,1.97
2017-01-06T14:15:31.381Z,1.24
2017-01-06T14:16:31.545Z,1.42
2017-01-06T14:17:31.107Z,1.42
2017-01-06T14:18:31.253Z,1.85
2017-01-06T14:19:31.903Z,2.15
2017-01-06T14:20:32.171Z,1.68
2017-01-06T14:21:31.140Z,1.35
2017-01-06T14:22:31.870Z,1.1
2017-01-06T14:23:31.483Z,1.08
2017-01-06T14:24:30.812Z,1.24
2017-01-06T14:25:31.130Z,1.18
2017-01-06T14:26:31.742Z,1.53
2017-01-06T14:27:31.245Z,1.68
2017-01-06T14:28:31.695Z,1.6
2017-01-06T14:29:31.016Z,1.31
2017-01-06T14:30:31.497Z,1.06
2017-01-06T14:31:31.282Z,0.89
2017-01-06T14:32:31.436Z,0.8
2017-01-06T14:33:31.545Z,0.92
2017-01-06T14:34:30.539Z,0.9
2017-01-06T14:35:30.846Z,0.53
2017-01-06T14:36:30.557Z,0.45
2017-01-06T14:37:31.423Z,0.31
2017-01-06T14:38:30.754Z,0.02
2017-01-06T14:39:31.253Z,0.13
2017-01-06T14:40:31.090Z,0.13
2017-01-06T14:41:30.667Z,-0.26
2017-01-06T14:42:30.588Z,-0.08
2017-01-06T14:43:30.961Z,-0.24
2017-01-06T14:44:30.750Z,-0.19
2017-01-06T14:45:30.561Z,0.1
2017-01-06T14:46:30.209Z,0.24
2017-01-06T14:47:30.849Z,0.3
2017-01-06T14:48:30.370Z,0.3
2017-01-06T14:49:31.115Z,0.41
2017-01-06T14:50:30.353Z,0.65
2017-01-06T14:51:30.749Z,0.56
2017-01-06T14:52:31.038Z,0.03
2017-01-06T14:53:31.032Z,-0.29
2017-01-06T14:54:30.626Z,-0.2
2017-01-06T14:55:30.616Z,-0.31
2017-01-06T14:56:30.265Z,-0.11
2017-01-06T14:57:30.563Z,-0.12
2017-01-06T14:58:30.860Z,-0.23
2017-01-06T14:59:30.888Z,-0.03
2017-01-06T15:00:29.801Z,-0.09
2017-01-06T15:01:30.110Z,-0.05
2017-01-06T15:02:30.087Z,-0.01
2017-01-06T15:03:30.720Z,0.02
2017-01-06T15:04:30.359Z,0.07
2017-01-06T15:05:30.529Z,-0.01
2017-01-06T15:06:30.321Z,0.17
2017-01-06T15:07:30.368Z,0.07
2017-01-06T15:08:29.289Z,0.19
2017-01-06T15:09:29.784Z,0.12
2017-01-06T15:10:29.884Z,0.17
2017-01-06T15:11:29.867Z,-0.02
2017-01-06T15:12:29.734Z,0.05
2017-01-06T15:13:29.643Z,-0.02
2017-01-06T15:14:29.772Z,0.03
2017-01-06T15:15:30.430Z,0.3
2017-01-06T15:16:30.028Z,0.23
2017-01-06T15:17:30.328Z,0.05
2017-01-06T15:18:30.308Z,-0.08
2017-01-06T15:19:29.580Z,-0.24
2017-01-06T15:20:29.447Z,-0.12
2017-01-06T15:21:29.560Z,-0.23
2017-01-06T15:22:29.549Z,-0.2
2017-01-06T15:23:29.818Z,-0.2
2017-01-06T15:24:29.453Z,-0.15
2017-01-06T15:25:29.105Z,-0.06
2017-01-06T15:26:29.013Z,-0.13
2017-01-06T15:27:29.379Z,-0.03
2017-01-06T15:28:30.005Z,-0.03
2017-01-06T15:29:29.175Z,0.07
2017-01-06T15:30:29.630Z,0.12
2017-01-06T15:31:29.919Z,0.17
2017-01-06T15:32:29.245Z,0.45
2017-01-06T15:33:29.262Z,0.37
2017-01-06T15:34:29.536Z,0.13
2017-01-06T15:35:29.161Z,-0.03
2017-01-06T15:36:29.124Z,-0.03
2017-01-06T15:37:29.020Z,-0.19
2017-01-06T15:38:29.392Z,-0.24
2017-01-06T15:39:29.350Z,-0.11
2017-01-06T15:40:29.360Z,-0.12
2017-01-06T15:41:29.638Z,-0.24
2017-01-06T15:42:29.296Z,-0.44
2017-01-06T15:43:28.959Z,-0.51
2017-01-06T15:44:29.655Z,-0.3
2017-01-06T15:45:29.190Z,-0.16
2017-01-06T15:46:29.573Z,-0.23
2017-01-06T15:47:28.820Z,-0.31
2017-01-06T15:48:28.813Z,-0.33
2017-01-06T15:49:29.394Z,-0.34
2017-01-06T15:50:29.364Z,-0.34
2017-01-06T15:51:27.885Z,-0.31
2017-01-06T15:52:28.339Z,-0.41
2017-01-06T15:53:28.677Z,-0.23
2017-01-06T15:54:28.290Z,-0.21
2017-01-06T15:55:28.917Z,-0.03
2017-01-06T15:56:28.140Z,-0.01
2017-01-06T15:57:28.460Z,-0.2
2017-01-06T15:58:29.271Z,-0.16
2017-01-06T15:59:29.005Z,-0.26
2017-01-06T16:00:28.773Z,-0.05
2017-01-06T16:01:29.085Z,0.02
2017-01-06T16:02:28.299Z,-0.08
2017-01-06T16:03:29.015Z,-0.15
2017-01-06T16:04:28.877Z,-0.23
2017-01-06T16:05:28.225Z,-0.15
2017-01-06T16:06:28.216Z,0.03
2017-01-06T16:07:27.615Z,0.03
2017-01-06T16:08:28.678Z,0.07
2017-01-06T16:09:28.184Z,0.13
2017-01-06T16:10:27.763Z,0.17
2017-01-06T16:11:28.156Z,0.23
2017-01-06T16:12:28.042Z,0.23
2017-01-06T16:13:27.671Z,0.24
2017-01-06T16:14:28.411Z,0.17
2017-01-06T16:15:28.347Z,0.23
2017-01-06T16:16:27.993Z,0.16
2017-01-06T16:17:28.618Z,-0.03
2017-01-06T16:18:28.250Z,0.02
2017-01-06T16:19:28.238Z,-0.23
2017-01-06T16:20:27.201Z,-0.39
2017-01-06T16:21:27.124Z,-0.49
2017-01-06T16:22:28.162Z,-0.33
2017-01-06T16:23:28.444Z,-0.27
2017-01-06T16:24:28.164Z,-0.33
2017-01-06T16:25:28.399Z,-0.36
2017-01-06T16:26:28.379Z,-0.44
2017-01-06T16:27:28.346Z,-0.36
2017-01-06T16:28:27.324Z,-0.2
2017-01-06T16:29:27.535Z,-0.48
2017-01-06T16:30:28.115Z,-0.39
2017-01-06T16:31:27.573Z,-0.26
2017-01-06T16:32:28.178Z,-0.23
2017-01-06T16:33:27.255Z,-0.2
2017-01-06T16:34:27.433Z,-0.31
2017-01-06T16:35:28.223Z,-0.41
2017-01-06T16:36:27.921Z,-0.41
2017-01-06T16:37:28.068Z,-0.33
2017-01-06T16:38:28.031Z,-0.16
2017-01-06T16:39:27.332Z,-0.12
2017-01-06T16:40:27.213Z,-0.03
2017-01-06T16:41:27.909Z,-0.11
2017-01-06T16:42:27.596Z,-0.19
2017-01-06T16:43:27.206Z,-0.21
2017-01-06T16:44:26.449Z,-0.41
2017-01-06T16:45:27.854Z,-0.45
2017-01-06T16:46:27.711Z,-0.44
2017-01-06T16:47:26.377Z,-0.31
2017-01-06T16:48:26.994Z,-0.26
2017-01-06T16:49:27.604Z,-0.41
2017-01-06T16:50:26.943Z,-0.29
2017-01-06T16:51:27.722Z,-0.39
2017-01-06T16:52:26.633Z,-0.29
2017-01-06T16:53:27.600Z,-0.65
2017-01-06T16:54:26.180Z,-0.87
2017-01-06T16:55:26.902Z,-0.96
2017-01-06T16:56:26.432Z,-0.8
2017-01-06T16:57:26.825Z,-0.77
2017-01-06T16:58:26.786Z,-0.65
2017-01-06T16:59:26.825Z,-0.65
2017-01-06T17:00:27.259Z,-0.96
2017-01-06T17:01:27.379Z,-1.1
2017-01-06T17:02:26.055Z,-1.14
2017-01-06T17:03:26.695Z,-1.32
2017-01-06T17:04:25.920Z,-1.3
2017-01-06T17:05:26.957Z,-1.25
2017-01-06T17:06:26.561Z,-1.36
2017-01-06T17:07:26.934Z,-1.56
2017-01-06T17:08:26.276Z,-1.54
2017-01-06T17:09:26.469Z,-1.42
2017-01-06T17:10:26.976Z,-1.51
2017-01-06T17:11:26.921Z,-1.35
2017-01-06T17:12:27.077Z,-1.33
2017-01-06T17:13:26.686Z,-1.33
2017-01-06T17:14:27.007Z,-1.09
2017-01-06T17:15:26.630Z,-0.97
2017-01-06T17:16:26.929Z,-0.87
2017-01-06T17:17:25.911Z,-1
2017-01-06T17:18:26.890Z,-1
2017-01-06T17:19:26.535Z,-1.03
2017-01-06T17:20:25.752Z,-1.07
2017-01-06T17:21:26.649Z,-1.18
2017-01-06T17:22:25.689Z,-1.21
2017-01-06T17:23:26.038Z,-1.39
2017-01-06T17:24:26.068Z,-1.66
2017-01-06T17:25:25.880Z,-1.5
2017-01-06T17:26:26.285Z,-1.38
2017-01-06T17:27:26.628Z,-1.48
2017-01-06T17:28:25.927Z,-1.56
2017-01-06T17:29:25.906Z,-1.6
2017-01-06T17:30:26.605Z,-1.46
2017-01-06T17:31:25.943Z,-1.38
2017-01-06T17:32:25.774Z,-1.53
2017-01-06T17:33:26.462Z,-1.77
2017-01-06T17:34:25.683Z,-1.78
2017-01-06T17:35:25.719Z,-1.74
2017-01-06T17:36:25.023Z,-1.71
2017-01-06T17:37:25.833Z,-1.64
2017-01-06T17:38:25.651Z,-1.45
2017-01-06T17:39:26.121Z,-1.28
2017-01-06T17:40:25.897Z,-1.2
2017-01-06T17:41:24.820Z,-1.18
2017-01-06T17:42:25.425Z,-1.2
2017-01-06T17:43:26.151Z,-1.15
2017-01-06T17:44:26.019Z,-1.25
2017-01-06T17:45:25.408Z,-1.53
2017-01-06T17:46:25.095Z,-1.67
2017-01-06T17:47:25.043Z,-1.56
2017-01-06T17:48:24.926Z,-1.38
2017-01-06T17:49:24.657Z,-1.38
2017-01-06T17:50:24.955Z,-1.33
2017-01-06T17:51:25.239Z,-1.36
2017-01-06T17:52:25.717Z,-1.35
2017-01-06T17:53:25.230Z,-1.32
2017-01-06T17:54:24.510Z,-1.25
2017-01-06T17:55:25.683Z,-1.25
2017-01-06T17:56:25.424Z,-1.18
2017-01-06T17:57:25.061Z,-1.1
2017-01-06T17:58:25.546Z,-1.06
2017-01-06T17:59:25.352Z,-1.02
2017-01-06T18:00:25.307Z,-1.09
2017-01-06T18:01:24.988Z,-1.25
2017-01-06T18:02:25.263Z,-1.3
2017-01-06T18:03:25.559Z,-1.38
2017-01-06T18:04:24.859Z,-1.35
2017-01-06T18:05:24.826Z,-1.24
2017-01-06T18:06:24.473Z,-1.14
2017-01-06T18:07:24.701Z,-1.2
2017-01-06T18:08:24.706Z,-1.1
2017-01-06T18:09:24.742Z,-1.15
2017-01-06T18:10:24.053Z,-1.1
2017-01-06T18:11:25.315Z,-0.95
2017-01-06T18:12:24.655Z,-1.25
2017-01-06T18:13:24.607Z,-1.1
2017-01-06T18:14:24.503Z,-1.21
2017-01-06T18:15:24.887Z,-1.38
2017-01-06T18:16:24.357Z,-1.25
2017-01-06T18:17:24.394Z,-1.14
2017-01-06T18:18:24.784Z,-1.12
2017-01-06T18:19:24.350Z,-1.04
2017-01-06T18:20:24.429Z,-1.04
2017-01-06T18:21:24.369Z,-1.33
2017-01-06T18:22:24.029Z,-1.53
2017-01-06T18:23:24.320Z,-1.42
2017-01-06T18:24:24.943Z,-1.36
2017-01-06T18:25:24.575Z,-1.24
2017-01-06T18:26:24.247Z,-1.21
2017-01-06T18:27:24.889Z,-1.2
2017-01-06T18:28:24.816Z,-1.18
2017-01-06T18:29:24.136Z,-1.28
2017-01-06T18:30:24.785Z,-1.35
2017-01-06T18:31:24.084Z,-1.35
2017-01-06T18:32:24.067Z,-1.59
2017-01-06T18:33:24.685Z,-1.51
2017-01-06T18:34:24.334Z,-1.3
2017-01-06T18:35:24.654Z,-1.09
2017-01-06T18:36:24.599Z,-1.12
2017-01-06T18:37:24.224Z,-0.97
2017-01-06T18:38:24.196Z,-0.92
2017-01-06T18:39:24.163Z,-1.04
2017-01-06T18:40:23.214Z,-0.96
2017-01-06T18:41:23.726Z,-0.84
2017-01-06T18:42:23.949Z,-0.87
2017-01-06T18:43:23.188Z,-1
2017-01-06T18:44:23.697Z,-0.81
2017-01-06T18:45:24.337Z,-0.77
2017-01-06T18:46:23.676Z,-0.76
2017-01-06T18:47:23.593Z,-0.97
2017-01-06T18:48:24.249Z,-0.89
2017-01-06T18:49:23.545Z,-0.84
2017-01-06T18:50:24.185Z,-0.8
2017-01-06T18:51:23.803Z,-0.76
2017-01-06T18:52:23.972Z,-0.8
2017-01-06T18:53:23.769Z,-0.87
2017-01-06T18:54:23.062Z,-0.7
2017-01-06T18:55:23.441Z,-0.73
2017-01-06T18:56:24.030Z,-0.84
2017-01-06T18:57:23.252Z,-0.81
2017-01-06T18:58:23.163Z,-0.97
2017-01-06T18:59:23.118Z,-1.06
2017-01-06T19:00:23.901Z,-1
2017-01-06T19:01:23.197Z,-0.96
2017-01-06T19:02:23.161Z,-0.87
2017-01-06T19:03:23.206Z,-0.97
2017-01-06T19:04:22.698Z,-1.12
2017-01-06T19:05:22.364Z,-1.24
2017-01-06T19:06:22.736Z,-1.14
2017-01-06T19:07:23.310Z,-1.17
2017-01-06T19:08:23.851Z,-1.25
2017-01-06T19:09:23.508Z,-1.21
2017-01-06T19:10:22.918Z,-1.32
2017-01-06T19:11:22.593Z,-1.41
2017-01-06T19:12:22.933Z,-1.36
2017-01-06T19:13:23.383Z,-1.32
2017-01-06T19:14:22.751Z,-1.33
2017-01-06T19:15:23.459Z,-1.23
2017-01-06T19:16:22.564Z,-1.2
2017-01-06T19:17:23.150Z,-1.24
2017-01-06T19:18:23.054Z,-1.15
2017-01-06T19:19:21.854Z,-1.15
2017-01-06T19:20:22.686Z,-1.18
2017-01-06T19:21:22.960Z,-1.2
2017-01-06T19:22:22.494Z,-1.25
2017-01-06T19:23:23.095Z,-1.21
2017-01-06T19:24:22.213Z,-1.07
2017-01-06T19:25:23.190Z,-1.07
2017-01-06T19:26:22.864Z,-1.15
2017-01-06T19:27:22.343Z,-1.21
2017-01-06T19:28:21.775Z,-1.04
2017-01-06T19:29:22.560Z,-1.02
2017-01-06T19:30:21.945Z,-1.14
2017-01-06T19:31:22.305Z,-1.07
2017-01-06T19:32:22.401Z,-1.04
2017-01-06T19:33:22.443Z,-1.24
2017-01-06T19:34:22.039Z,-1.36
2017-01-06T19:35:22.529Z,-1.5
2017-01-06T19:36:22.259Z,-1.42
2017-01-06T19:37:22.466Z,-1.46
2017-01-06T19:38:21.795Z,-1.24
2017-01-06T19:39:21.776Z,-1.17
2017-01-06T19:40:21.260Z,-1.35
2017-01-06T19:41:22.365Z,-1.32
2017-01-06T19:42:22.693Z,-1.15
2017-01-06T19:43:21.674Z,-1.14
2017-01-06T19:44:22.454Z,-1.38
2017-01-06T19:45:22.214Z,-1.54
2017-01-06T19:46:22.564Z,-1.5
2017-01-06T19:47:22.359Z,-1.35
2017-01-06T19:48:21.433Z,-1.51
2017-01-06T19:49:21.784Z,-1.33
2017-01-06T19:50:22.115Z,-1.48
2017-01-06T19:51:22.098Z,-1.51
2017-01-06T19:52:21.730Z,-1.38
2017-01-06T19:53:21.692Z,-1.51
2017-01-06T19:54:22.166Z,-1.63
2017-01-06T19:55:22.291Z,-1.42
2017-01-06T19:56:21.950Z,-1.38
2017-01-06T19:57:21.576Z,-1.33
2017-01-06T19:58:21.567Z,-1.42
2017-01-06T19:59:22.032Z,-1.35
2017-01-06T20:00:20.820Z,-1.24
2017-01-06T20:01:21.664Z,-1.28
2017-01-06T20:02:21.104Z,-1.3
2017-01-06T20:03:21.956Z,-1.27
2017-01-06T20:04:21.085Z,-1.46
2017-01-06T20:05:20.903Z,-1.6
2017-01-06T20:06:21.275Z,-1.72
2017-01-06T20:07:21.226Z,-1.97
2017-01-06T20:08:22.286Z,-1.93
2017-01-06T20:09:21.138Z,-1.81
2017-01-06T20:10:21.427Z,-1.78
2017-01-06T20:11:22.563Z,-1.81
2017-01-06T20:12:21.509Z,-1.81
2017-01-06T20:13:21.059Z,-1.64
2017-01-06T20:14:20.958Z,-1.63
2017-01-06T20:15:20.707Z,-1.51
2017-01-06T20:16:21.195Z,-1.57
2017-01-06T20:17:21.187Z,-1.5
2017-01-06T20:18:21.444Z,-1.39
2017-01-06T20:19:21.087Z,-1.24
2017-01-06T20:20:21.621Z,-1.27
2017-01-06T20:21:21.091Z,-1.28
2017-01-06T20:22:21.443Z,-1.25
2017-01-06T20:23:21.909Z,-1.5
2017-01-06T20:24:21.887Z,-1.56
2017-01-06T20:25:20.769Z,-1.74
2017-01-06T20:26:20.981Z,-1.72
2017-01-06T20:27:21.053Z,-1.81
2017-01-06T20:28:21.040Z,-1.78
2017-01-06T20:29:21.649Z,-1.79
2017-01-06T20:30:21.672Z,-1.61
2017-01-06T20:31:20.667Z,-1.67
2017-01-06T20:32:20.728Z,-1.72
2017-01-06T20:33:22.008Z,-1.72
2017-01-06T20:34:21.855Z,-1.56
2017-01-06T20:35:21.776Z,-1.67
2017-01-06T20:36:20.524Z,-1.59
2017-01-06T20:37:21.704Z,-1.59
2017-01-06T20:38:20.385Z,-1.6
2017-01-06T20:39:20.729Z,-1.64
2017-01-06T20:40:20.979Z,-1.69
2017-01-06T20:41:20.047Z,-1.78
2017-01-06T20:42:20.964Z,-1.75
2017-01-06T20:43:21.277Z,-1.59
2017-01-06T20:44:20.651Z,-1.69
2017-01-06T20:45:20.820Z,-1.61
2017-01-06T20:46:20.439Z,-1.63
2017-01-06T20:47:20.532Z,-1.61
2017-01-06T20:48:20.630Z,-1.64
2017-01-06T20:49:21.307Z,-1.69
2017-01-06T20:50:21.340Z,-1.72
2017-01-06T20:51:20.965Z,-1.81
2017-01-06T20:52:20.608Z,-1.71
2017-01-06T20:53:21.257Z,-1.57
2017-01-06T20:54:20.213Z,-1.67
2017-01-06T20:55:20.985Z,-1.67
2017-01-06T20:56:20.224Z,-1.71
2017-01-06T20:57:20.446Z,-1.64
2017-01-06T20:58:20.422Z,-1.78
2017-01-06T20:59:20.349Z,-1.79
2017-01-06T21:00:19.491Z,-1.61
2017-01-06T21:01:20.731Z,-1.71
2017-01-06T21:02:19.821Z,-1.77
2017-01-06T21:03:20.641Z,-1.96
2017-01-06T21:04:19.905Z,-1.84
2017-01-06T21:05:19.368Z,-1.93
2017-01-06T21:06:19.328Z,-1.99
2017-01-06T21:07:19.359Z,-1.74
2017-01-06T21:08:19.076Z,-1.71
2017-01-06T21:09:19.169Z,-1.69
2017-01-06T21:10:19.797Z,-1.71
2017-01-06T21:11:19.119Z,-1.66
2017-01-06T21:12:19.403Z,-1.51
2017-01-06T21:13:19.665Z,-1.48
2017-01-06T21:14:18.913Z,-1.63
2017-01-06T21:15:19.138Z,-1.54
2017-01-06T21:16:19.802Z,-1.54
2017-01-06T21:17:19.695Z,-1.67
2017-01-06T21:18:19.002Z,-1.78
2017-01-06T21:19:20.125Z,-1.61
2017-01-06T21:20:19.773Z,-1.71
2017-01-06T21:21:20.049Z,-1.66
2017-01-06T21:22:19.417Z,-1.69
2017-01-06T21:23:19.972Z,-1.95
2017-01-06T21:24:20.085Z,-1.87
2017-01-06T21:25:19.448Z,-2.15
2017-01-06T21:26:19.299Z,-2.05
2017-01-06T21:27:19.490Z,-1.92
2017-01-06T21:28:19.682Z,-1.87
2017-01-06T21:29:18.655Z,-1.69
2017-01-06T21:30:18.676Z,-1.69
2017-01-06T21:31:19.291Z,-1.95
2017-01-06T21:32:19.810Z,-1.93
2017-01-06T21:33:19.156Z,-1.78
2017-01-06T21:34:18.962Z,-2.02
2017-01-06T21:35:18.773Z,-1.81
2017-01-06T21:36:18.898Z,-1.77
2017-01-06T21:37:19.032Z,-1.9
2017-01-06T21:38:19.162Z,-1.93
2017-01-06T21:39:18.388Z,-1.89
2017-01-06T21:40:19.119Z,-2.02
2017-01-06T21:41:19.303Z,-2.17
2017-01-06T21:42:18.529Z,-2.14
2017-01-06T21:43:18.712Z,-2.11
2017-01-06T21:44:18.847Z,-2.13
2017-01-06T21:45:19.097Z,-2.17
2017-01-06T21:46:18.764Z,-2.05
2017-01-06T21:47:18.455Z,-2.1
2017-01-06T21:48:18.325Z,-2.03
2017-01-06T21:49:18.362Z,-2.13
2017-01-06T21:50:17.905Z,-2
2017-01-06T21:51:18.534Z,-2.2
2017-01-06T21:52:18.295Z,-2.26
2017-01-06T21:53:18.130Z,-2.29
2017-01-06T21:54:17.668Z,-2.25
2017-01-06T21:55:18.221Z,-2.37
2017-01-06T21:56:17.607Z,-2.21
2017-01-06T21:57:18.020Z,-2
2017-01-06T21:58:18.159Z,-1.82
2017-01-06T21:59:18.241Z,-1.63
2017-01-06T22:00:18.540Z,-1.63
2017-01-06T22:01:17.860Z,-1.53
2017-01-06T22:02:18.547Z,-1.57
2017-01-06T22:03:18.155Z,-1.57
2017-01-06T22:04:18.413Z,-1.72
2017-01-06T22:05:18.427Z,-1.75
2017-01-06T22:06:18.336Z,-1.92
2017-01-06T22:07:17.483Z,-1.89
2017-01-06T22:08:16.892Z,-1.78
2017-01-06T22:09:18.263Z,-1.89
2017-01-06T22:10:17.573Z,-1.92
2017-01-06T22:11:17.864Z,-2.05
2017-01-06T22:12:17.528Z,-2.23
2017-01-06T22:13:17.399Z,-2.14
2017-01-06T22:14:17.452Z,-2.07
2017-01-06T22:15:17.422Z,-2.21
2017-01-06T22:16:16.761Z,-2.25
2017-01-06T22:17:18.038Z,-2.23
2017-01-06T22:18:17.324Z,-2.02
2017-01-06T22:19:16.972Z,-1.96
2017-01-06T22:20:16.961Z,-2.03
2017-01-06T22:21:17.911Z,-2
2017-01-06T22:22:17.209Z,-2.23
2017-01-06T22:23:17.174Z,-2.42
2017-01-06T22:24:17.162Z,-2.23
2017-01-06T22:25:17.448Z,-2.33
2017-01-06T22:26:16.355Z,-2.29
2017-01-06T22:27:16.923Z,-2.17
2017-01-06T22:28:17.388Z,-2.08
2017-01-06T22:29:16.686Z,-2.08
2017-01-06T22:30:17.098Z,-2.13
2017-01-06T22:31:16.623Z,-2.08
2017-01-06T22:32:16.785Z,-2.2
2017-01-06T22:33:17.537Z,-2.1
2017-01-06T22:34:17.535Z,-2.13
2017-01-06T22:35:17.483Z,-2.1
2017-01-06T22:36:16.985Z,-1.97
2017-01-06T22:37:16.695Z,-1.97
2017-01-06T22:38:17.389Z,-1.92
2017-01-06T22:39:17.387Z,-1.69
2017-01-06T22:40:17.348Z,-1.67
2017-01-06T22:41:17.326Z,-1.71
2017-01-06T22:42:16.935Z,-1.96
2017-01-06T22:43:17.285Z,-2.11
2017-01-06T22:44:17.226Z,-1.97
2017-01-06T22:45:17.225Z,-2.03
2017-01-06T22:46:17.023Z,-2.02
2017-01-06T22:47:17.125Z,-2.08
2017-01-06T22:48:16.103Z,-2.02
2017-01-06T22:49:17.050Z,-2.1
2017-01-06T22:50:17.030Z,-2
2017-01-06T22:51:16.331Z,-2.05
2017-01-06T22:52:16.639Z,-1.93
2017-01-06T22:53:16.593Z,-1.93
2017-01-06T22:54:16.910Z,-1.78
2017-01-06T22:55:16.229Z,-1.64
2017-01-06T22:56:15.870Z,-1.53
2017-01-06T22:57:16.877Z,-1.48
2017-01-06T22:58:16.443Z,-1.54
2017-01-06T22:59:16.597Z,-1.59
2017-01-06T23:00:16.387Z,-1.95
2017-01-06T23:01:15.625Z,-1.95
2017-01-06T23:02:16.020Z,-1.82
2017-01-06T23:03:15.984Z,-1.84
2017-01-06T23:04:16.270Z,-1.72
2017-01-06T23:05:16.582Z,-1.77
2017-01-06T23:06:15.794Z,-1.66
2017-01-06T23:07:16.565Z,-1.53
2017-01-06T23:08:15.422Z,-1.56
2017-01-06T23:09:15.737Z,-1.72
2017-01-06T23:10:15.793Z,-1.67
2017-01-06T23:11:16.411Z,-1.74
2017-01-06T23:12:15.729Z,-1.78
2017-01-06T23:13:15.691Z,-1.78
2017-01-06T23:14:16.324Z,-1.61
2017-01-06T23:15:14.909Z,-1.82
2017-01-06T23:16:15.499Z,-1.72
2017-01-06T23:17:15.588Z,-1.92
2017-01-06T23:18:15.541Z,-1.89
2017-01-06T23:19:16.182Z,-1.96
2017-01-06T23:20:14.829Z,-2.02
2017-01-06T23:21:15.112Z,-1.93
2017-01-06T23:22:15.154Z,-1.97
2017-01-06T23:23:15.461Z,-2.02
2017-01-06T23:24:15.670Z,-1.85
2017-01-06T23:25:14.897Z,-1.82
2017-01-06T23:26:15.805Z,-1.84
2017-01-06T23:27:14.842Z,-1.78
2017-01-06T23:28:15.882Z,-1.66
2017-01-06T23:29:15.527Z,-1.9
2017-01-06T23:30:15.730Z,-1.95
2017-01-06T23:31:15.798Z,-1.95
2017-01-06T23:32:15.105Z,-1.79
2017-01-06T23:33:15.059Z,-1.66
2017-01-06T23:34:15.709Z,-1.75
2017-01-06T23:35:14.348Z,-1.81